ADDS METAR Data INFO
IDs: Format: Raw Decoded Include TAF

Data at: 2304 UTC 21 Feb 2018

KMOB 212256Z 14011KT 9SM BKN011 BKN018 BKN029 23/22 A3026 RMK AO2 RAE12 SLP243 P0001 T02330217
KMOB 212239Z 14014KT 8SM BKN013 23/21 A3025 RMK AO2 RAE12 P0001 T02330211
KMOB 212156Z 14014KT 5SM +RA BR SCT013 BKN018 OVC039 23/22 A3025 RMK AO2 SLP241 P0010 T02280217
KMOB 212116Z 13013KT 9SM -RA SCT013 BKN018 BKN055 23/21 A3025 RMK AO2 P0001 T02330211
KMOB 212056Z 14014KT 9SM -RA FEW017 BKN060 BKN075 24/21 A3025 RMK AO2 RAB27 SLP240 P0001 60001 T02390211 56016
KMOB 212019Z 15013KT 10SM FEW019 SCT042 OVC075 24/21 A3025 RMK AO2 T02440206
KMOB 211956Z 14018G23KT 7SM BKN019CB BKN033 BKN250 25/21 A3026 RMK AO2 RAB33E38 SLP243 CB ALQDS MOV N P0000 T02500206
KMOB 211856Z 15016KT 7SM BKN018 BKN060 BKN250 26/21 A3028 RMK AO2 SLP250 T02610206
KMOB 211756Z 15014KT 7SM BKN018 BKN026 OVC046 26/21 A3030 RMK AO2 SLP256 T02560206 10256 20217 58003
KMOB 211656Z 16014G22KT 7SM OVC015 24/21 A3031 RMK AO2 SLP262 T02440206
KMOB 211556Z 15015G23KT 7SM OVC010 24/21 A3032 RMK AO2 SLP264 T02390206
KMOB 211456Z 14011KT 6SM BR BKN009 OVC017 23/21 A3031 RMK AO2 SLP260 T02280206 51009
KMOB 211356Z 14009KT 5SM BR BKN008 BKN014 22/21 A3030 RMK AO2 SLP257 VCSH NE-SE T02220206
KMOB 211256Z 13011KT 4SM BR BKN007 OVC012 22/21 A3029 RMK AO2 SLP253 T02220206
KMOB 210756Z AUTO 14007KT 7SM OVC005 22/21 A3026 RMK AO2 SLP243 T02220211
KMOB 210656Z AUTO 14006KT 8SM OVC006 22/21 A3027 RMK AO2 SLP247 T02220211
KMOB 210556Z AUTO 15008KT 9SM OVC006 22/21 A3026 RMK AO2 SLP244 60001 T02220211 10228 20211 402610194 53002
KMOB 201511Z 13017KT 10SM BKN018 24/18 A3024 RMK AO2 T02440183
KMOB 201456Z 14013KT 7SM SCT017 24/19 A3024 RMK AO2 SLP237 T02440189 53009
KMOB 201356Z 13014G18KT 7SM SCT008 22/19 A3022 RMK AO2 SLP231 T02170189
KMOB 201256Z 12011KT 5SM BR OVC006 21/19 A3022 RMK AO2 SLP229 T02060194 $
KMOB 201206Z 13012KT 5SM BR OVC005 21/19 A3021 RMK AO2 T02060194 $
KMOB 201156Z 13009KT 5SM BR OVC004 21/19 A3021 RMK AO2 SLP228 T02060194 10211 20194 53003 $